Time;durP1;ratioP1;P1;durP2;ratioP2;P2;SDS_P1;SDS_P2;PMS_P1;PMS_P2;Temp;Humidity;BMP_temperature;BMP_pressure;BME280_temperature;BME280_humidity;BME280_pressure;Samples;Min_cycle;Max_cycle;Signal;HPM_P1;HPM_P2
2022/02/08 00:02:10;;;;;;;3.55;1.85;;;;;;;;;;4994926;28;20102;-66
2022/02/08 00:04:35;;;;;;;7.72;2.53;;;;;;;;;;4990422;28;20556;-65
2022/02/08 00:07:02;;;;;;;5.07;2.08;;;;;;;;;;4993434;28;20074;-65
2022/02/08 00:09:28;;;;;;;4.60;1.98;;;;;;;;;;4999698;28;20747;-65
2022/02/08 00:11:53;;;;;;;5.57;1.77;;;;;;;;;;4999625;28;20211;-65
2022/02/08 00:14:18;;;;;;;7.87;2.40;;;;;;;;;;4997062;28;20102;-65
2022/02/08 00:16:43;;;;;;;11.23;2.47;;;;;;;;;;4994887;28;20074;-66
2022/02/08 00:19:09;;;;;;;7.73;2.10;;;;;;;;;;4998607;28;20546;-65
2022/02/08 00:21:34;;;;;;;6.43;1.87;;;;;;;;;;4999041;28;20130;-65
2022/02/08 00:23:59;;;;;;;8.90;2.83;;;;;;;;;;4996759;28;20866;-65
2022/02/08 00:26:24;;;;;;;5.57;1.97;;;;;;;;;;4992589;28;20568;-65
2022/02/08 00:28:50;;;;;;;8.13;2.07;;;;;;;;;;4999796;28;20325;-66
2022/02/08 00:31:15;;;;;;;6.15;2.10;;;;;;;;;;4998127;28;20073;-65
2022/02/08 00:33:40;;;;;;;9.70;2.07;;;;;;;;;;4997657;28;20102;-65
2022/02/08 00:36:05;;;;;;;5.63;2.13;;;;;;;;;;4996762;28;20313;-65
2022/02/08 00:38:35;;;;;;;9.85;2.80;;;;;;;;;;4999627;28;20097;-66
2022/02/08 00:41:01;;;;;;;8.90;2.60;;;;;;;;;;4992666;28;20172;-65
2022/02/08 00:43:32;;;;;;;6.85;2.28;;;;;;;;;;4997314;28;20177;-65
2022/02/08 00:48:47;;;;;;;8.05;2.50;;;;;;;;;;4997864;28;20178;-65
2022/02/08 00:51:13;;;;;;;6.47;2.28;;;;;;;;;;4999400;28;20143;-65
2022/02/08 00:53:38;;;;;;;5.53;2.00;;;;;;;;;;5000100;28;20110;-65
2022/02/08 00:56:03;;;;;;;9.83;2.50;;;;;;;;;;5003427;28;20096;-66
2022/02/08 00:58:28;;;;;;;9.35;3.00;;;;;;;;;;5002928;28;20147;-66
2022/02/08 01:00:54;;;;;;;4.70;2.30;;;;;;;;;;5001431;28;20098;-66
2022/02/08 01:03:19;;;;;;;11.20;4.10;;;;;;;;;;4997621;28;20081;-66
2022/02/08 01:05:50;;;;;;;8.57;2.20;;;;;;;;;;5002003;28;20106;-66
2022/02/08 01:08:15;;;;;;;9.35;2.50;;;;;;;;;;5002105;28;20113;-66
2022/02/08 01:10:41;;;;;;;8.38;3.53;;;;;;;;;;4994989;28;20852;-66
2022/02/08 01:13:07;;;;;;;7.78;2.15;;;;;;;;;;4997607;28;20185;-66
2022/02/08 01:15:32;;;;;;;7.68;2.58;;;;;;;;;;4997702;28;20140;-65
2022/02/08 01:17:58;;;;;;;8.20;2.50;;;;;;;;;;4996792;28;20591;-65
2022/02/08 01:20:31;;;;;;;10.43;2.35;;;;;;;;;;4999002;28;20117;-66
2022/02/08 01:22:57;;;;;;;8.55;2.42;;;;;;;;;;4995651;28;20114;-66
2022/02/08 01:25:29;;;;;;;9.38;2.20;;;;;;;;;;4993849;28;20126;-66
2022/02/08 01:27:58;;;;;;;6.85;2.25;;;;;;;;;;4999293;28;20081;-66
2022/02/08 01:30:42;;;;;;;7.85;2.70;;;;;;;;;;4995367;28;20433;-66
2022/02/08 01:38:10;;;;;;;9.73;2.63;;;;;;;;;;4995746;28;20090;-66
2022/02/08 01:43:41;;;;;;;8.18;2.65;;;;;;;;;;4997099;28;20306;-66
2022/02/08 01:46:27;;;;;;;12.60;2.63;;;;;;;;;;4998274;28;20094;-65
2022/02/08 01:48:52;;;;;;;5.60;2.15;;;;;;;;;;4995657;28;20073;-66
2022/02/08 01:51:17;;;;;;;8.70;2.35;;;;;;;;;;4993972;28;20532;-66
2022/02/08 01:53:42;;;;;;;8.97;2.33;;;;;;;;;;4997240;28;20106;-66
2022/02/08 01:56:08;;;;;;;7.37;2.27;;;;;;;;;;4997389;28;20775;-65
2022/02/08 01:58:33;;;;;;;6.87;2.17;;;;;;;;;;4997596;28;20502;-65
2022/02/08 02:00:58;;;;;;;9.27;2.60;;;;;;;;;;4994557;28;20117;-66
2022/02/08 02:03:23;;;;;;;16.30;3.10;;;;;;;;;;4996938;28;20765;-66
2022/02/08 02:05:52;;;;;;;2.80;1.57;;;;;;;;;;4998952;28;20093;-65
2022/02/08 02:08:17;;;;;;;14.30;2.67;;;;;;;;;;4995190;28;20067;-65
2022/02/08 02:10:42;;;;;;;5.30;2.05;;;;;;;;;;4995345;28;20105;-65
2022/02/08 02:13:14;;;;;;;12.80;2.03;;;;;;;;;;4994300;28;20102;-65
2022/02/08 02:15:40;;;;;;;7.32;1.67;;;;;;;;;;4997475;28;20148;-65
2022/02/08 02:18:05;;;;;;;8.53;2.47;;;;;;;;;;4997368;28;20504;-65
2022/02/08 02:20:32;;;;;;;9.90;2.50;;;;;;;;;;4997562;28;20121;-65
2022/02/08 02:22:57;;;;;;;12.05;2.45;;;;;;;;;;4994596;28;20153;-66
2022/02/08 02:25:27;;;;;;;7.80;2.20;;;;;;;;;;4993913;28;20209;-66
2022/02/08 02:27:54;;;;;;;7.80;2.40;;;;;;;;;;4995868;28;20086;-65
2022/02/08 02:30:19;;;;;;;8.63;2.40;;;;;;;;;;4992794;28;20095;-65
2022/02/08 02:32:45;;;;;;;9.25;2.45;;;;;;;;;;4995340;28;20085;-65
2022/02/08 02:35:10;;;;;;;7.28;2.15;;;;;;;;;;4993678;28;20172;-65
2022/02/08 02:37:36;;;;;;;9.05;2.50;;;;;;;;;;4996604;28;20129;-66
2022/02/08 02:40:01;;;;;;;5.23;2.10;;;;;;;;;;4996214;28;20262;-65
2022/02/08 02:42:27;;;;;;;8.83;2.20;;;;;;;;;;4993197;28;20113;-65
2022/02/08 02:44:53;;;;;;;9.45;2.03;;;;;;;;;;5001484;28;20086;-66
2022/02/08 02:47:18;;;;;;;7.03;2.33;;;;;;;;;;4997714;28;20078;-65
2022/02/08 02:49:43;;;;;;;8.27;3.05;;;;;;;;;;4995338;28;20118;-65
2022/02/08 02:52:08;;;;;;;7.67;1.87;;;;;;;;;;4998669;28;20101;-65
2022/02/08 02:54:34;;;;;;;3.17;1.70;;;;;;;;;;5005581;28;20105;-65
2022/02/08 02:57:01;;;;;;;8.23;2.10;;;;;;;;;;5007527;28;20102;-66
2022/02/08 02:59:27;;;;;;;8.50;1.90;;;;;;;;;;4997723;28;20077;-66
2022/02/08 03:20:18;;;;;;;26.80;2.53;;;;;;;;;;4999135;28;20592;-66
2022/02/08 03:22:43;;;;;;;5.63;2.00;;;;;;;;;;4994136;28;20293;-66
2022/02/08 03:25:08;;;;;;;4.37;3.00;;;;;;;;;;5002572;28;20113;-66
2022/02/08 03:27:33;;;;;;;7.07;1.57;;;;;;;;;;4989896;28;20555;-66
2022/02/08 03:29:59;;;;;;;6.43;2.20;;;;;;;;;;5001605;28;20587;-66
2022/02/08 03:32:24;;;;;;;20.83;2.30;;;;;;;;;;4990951;28;20531;-66
2022/02/08 03:34:49;;;;;;;13.82;2.25;;;;;;;;;;5000831;28;20601;-65
2022/02/08 03:37:15;;;;;;;12.00;2.50;;;;;;;;;;4992042;28;20527;-66
2022/02/08 03:39:45;;;;;;;24.25;2.88;;;;;;;;;;5001789;28;20080;-66
2022/02/08 03:42:24;;;;;;;10.90;2.30;;;;;;;;;;4990895;28;20130;-66
2022/02/08 03:44:50;;;;;;;9.32;2.10;;;;;;;;;;5000906;28;20085;-66
2022/02/08 03:47:18;;;;;;;24.90;2.83;;;;;;;;;;5002848;28;20535;-66
2022/02/08 03:49:43;;;;;;;6.53;2.30;;;;;;;;;;4995298;28;20623;-66
2022/02/08 03:52:08;;;;;;;11.07;2.53;;;;;;;;;;4996934;28;20112;-66
2022/02/08 03:54:34;;;;;;;9.40;2.20;;;;;;;;;;4997351;28;20354;-67
2022/02/08 03:56:59;;;;;;;5.05;2.90;;;;;;;;;;4994952;28;20284;-67
2022/02/08 03:59:25;;;;;;;5.15;2.30;;;;;;;;;;4998586;28;20086;-66
2022/02/08 04:04:48;;;;;;;5.28;3.67;;;;;;;;;;4999519;28;20086;-66
2022/02/08 04:07:21;;;;;;;5.72;1.90;;;;;;;;;;4976201;28;20142;-66
2022/02/08 04:09:49;;;;;;;4.88;2.65;;;;;;;;;;4982421;28;20568;-66
2022/02/08 04:12:24;;;;;;;2.83;2.00;;;;;;;;;;4986373;28;20426;-67
2022/02/08 04:17:33;;;;;;;2.63;1.83;;;;;;;;;;4981783;28;20099;-66
2022/02/08 04:34:05;;;;;;;5.45;2.97;;;;;;;;;;4979783;28;20571;-67
2022/02/08 04:36:12;;;;;;;12.77;2.78;;;;;;;;;;4965754;28;20091;-67
2022/02/08 04:41:08;;;;;;;9.93;2.23;;;;;;;;;;4981636;28;20132;-66
2022/02/08 04:44:00;;;;;;;2.42;1.88;;;;;;;;;;4993577;28;20168;-66
2022/02/08 04:48:57;;;;;;;7.90;2.30;;;;;;;;;;4988683;28;20107;-67
2022/02/08 04:51:59;;;;;;;25.00;2.90;;;;;;;;;;5001261;28;20309;-66
2022/02/08 04:54:25;;;;;;;7.63;2.90;;;;;;;;;;5002305;28;20102;-67
2022/02/08 04:57:15;;;;;;;12.57;2.40;;;;;;;;;;4988542;28;20074;-67
2022/02/08 05:45:24;;;;;;;88.07;4.03;;;;;;;;;;4993992;28;20539;-67
2022/02/08 05:47:52;;;;;;;19.00;2.85;;;;;;;;;;4995588;28;20546;-66
2022/02/08 05:55:37;;;;;;;147.40;5.40;;;;;;;;;;4949100;28;20185;-68
2022/02/08 05:58:02;;;;;;;515.77;13.53;;;;;;;;;;4999542;28;20201;-68
2022/02/08 06:00:28;;;;;;;267.25;7.68;;;;;;;;;;4993105;28;20145;-67
2022/02/08 06:02:55;;;;;;;67.15;2.78;;;;;;;;;;5005055;28;20102;-67
2022/02/08 06:05:21;;;;;;;87.80;3.63;;;;;;;;;;4987145;28;20189;-66
2022/02/08 06:07:46;;;;;;;38.92;2.95;;;;;;;;;;5005145;28;20176;-67
2022/02/08 06:10:11;;;;;;;532.37;12.53;;;;;;;;;;5007961;28;20110;-67
2022/02/08 06:12:44;;;;;;;440.92;10.68;;;;;;;;;;5007054;28;20101;-67
2022/02/08 06:15:10;;;;;;;489.45;13.52;;;;;;;;;;4988365;28;20534;-67
2022/02/08 06:17:36;;;;;;;406.83;11.43;;;;;;;;;;4990314;28;20105;-67
2022/02/08 06:20:01;;;;;;;359.33;7.50;;;;;;;;;;4997895;28;20136;-66
2022/02/08 06:22:26;;;;;;;10.70;1.83;;;;;;;;;;4988523;28;20354;-67
2022/02/08 06:24:53;;;;;;;490.75;11.00;;;;;;;;;;4997706;28;20572;-67
2022/02/08 06:27:18;;;;;;;411.45;10.02;;;;;;;;;;4990234;28;20144;-67
2022/02/08 06:29:43;;;;;;;654.05;14.88;;;;;;;;;;5000215;28;20102;-67
2022/02/08 06:32:09;;;;;;;10.90;2.20;;;;;;;;;;4995025;28;20090;-67
2022/02/08 06:34:34;;;;;;;433.70;9.70;;;;;;;;;;4990723;28;20114;-67
2022/02/08 06:37:07;;;;;;;241.27;7.10;;;;;;;;;;4991676;28;20165;-67
2022/02/08 06:39:35;;;;;;;341.95;8.73;;;;;;;;;;4989397;28;20285;-67
2022/02/08 06:42:01;;;;;;;626.00;18.23;;;;;;;;;;4993899;28;20194;-67
2022/02/08 06:44:26;;;;;;;351.53;9.73;;;;;;;;;;4998020;28;20184;-67
2022/02/08 06:46:51;;;;;;;445.37;11.83;;;;;;;;;;4998171;28;20175;-67
2022/02/08 06:49:17;;;;;;;375.30;10.53;;;;;;;;;;4996748;28;20109;-67
2022/02/08 06:51:42;;;;;;;289.83;10.30;;;;;;;;;;5007979;28;20133;-67
2022/02/08 06:54:07;;;;;;;299.33;9.47;;;;;;;;;;4995988;28;20175;-67
2022/02/08 06:56:33;;;;;;;461.83;15.20;;;;;;;;;;5003275;28;20074;-67
2022/02/08 06:59:05;;;;;;;241.80;8.53;;;;;;;;;;4996390;28;20106;-67
2022/02/08 07:01:33;;;;;;;585.10;13.82;;;;;;;;;;4985891;28;20354;-67
2022/02/08 07:03:59;;;;;;;441.65;9.80;;;;;;;;;;4995987;28;20081;-66
2022/02/08 07:06:24;;;;;;;270.95;6.50;;;;;;;;;;4996692;28;20094;-67
2022/02/08 07:08:49;;;;;;;121.63;4.17;;;;;;;;;;4996984;28;20583;-67
2022/02/08 07:11:16;;;;;;;101.90;4.57;;;;;;;;;;4997809;28;20329;-67
2022/02/08 07:13:43;;;;;;;383.73;10.60;;;;;;;;;;4997830;28;20393;-67
2022/02/08 07:16:09;;;;;;;130.63;4.68;;;;;;;;;;5005500;28;20499;-66
2022/02/08 07:18:34;;;;;;;15.38;1.73;;;;;;;;;;4994149;28;20476;-67
2022/02/08 07:21:00;;;;;;;542.80;13.57;;;;;;;;;;4998761;28;20618;-67
2022/02/08 07:23:25;;;;;;;104.90;3.20;;;;;;;;;;4997925;28;20082;-67
2022/02/08 07:25:53;;;;;;;372.57;10.80;;;;;;;;;;5008035;28;20702;-67
2022/02/08 07:28:18;;;;;;;367.63;10.07;;;;;;;;;;4989519;28;20149;-67
2022/02/08 07:30:44;;;;;;;377.63;9.67;;;;;;;;;;4993734;28;20497;-67
2022/02/08 07:33:09;;;;;;;335.92;8.63;;;;;;;;;;4989429;28;20434;-67
2022/02/08 07:35:58;;;;;;;438.88;12.02;;;;;;;;;;5000066;28;20087;-67
2022/02/08 07:38:29;;;;;;;294.70;7.82;;;;;;;;;;4985841;28;20518;-67
2022/02/08 07:43:20;;;;;;;426.03;10.80;;;;;;;;;;4998926;28;20082;-67
2022/02/08 07:45:45;;;;;;;696.65;17.42;;;;;;;;;;5005943;28;20539;-68
2022/02/08 07:48:10;;;;;;;188.47;9.47;;;;;;;;;;5001478;28;20769;-68
2022/02/08 07:50:39;;;;;;;35.23;2.27;;;;;;;;;;4998174;28;20342;-67
2022/02/08 07:53:05;;;;;;;44.75;2.88;;;;;;;;;;4984979;28;20168;-66
2022/02/08 07:55:30;;;;;;;414.73;12.35;;;;;;;;;;4995161;28;20090;-68
2022/02/08 07:57:56;;;;;;;782.40;35.17;;;;;;;;;;5003371;28;20105;-68
2022/02/08 08:00:21;;;;;;;447.33;15.33;;;;;;;;;;4996762;28;20090;-67
2022/02/08 08:02:46;;;;;;;635.10;16.03;;;;;;;;;;4987476;28;20359;-68
2022/02/08 08:05:12;;;;;;;119.83;7.30;;;;;;;;;;4989992;28;20108;-67
2022/02/08 08:07:38;;;;;;;362.02;12.05;;;;;;;;;;4995120;28;20313;-68
2022/02/08 08:10:04;;;;;;;544.73;15.80;;;;;;;;;;4981219;28;20102;-68
2022/02/08 08:12:29;;;;;;;175.98;8.27;;;;;;;;;;4992784;28;20074;-68
2022/02/08 08:14:57;;;;;;;383.55;14.77;;;;;;;;;;4993704;28;20109;-68
2022/02/08 08:19:53;;;;;;;147.40;5.03;;;;;;;;;;4986342;28;20118;-67
2022/02/08 08:22:19;;;;;;;273.13;11.85;;;;;;;;;;4993026;28;20101;-68
2022/02/08 08:24:44;;;;;;;243.67;8.10;;;;;;;;;;4995629;28;20398;-68
2022/02/08 08:27:09;;;;;;;453.23;13.60;;;;;;;;;;4996853;28;20097;-69
2022/02/08 08:29:34;;;;;;;691.20;23.27;;;;;;;;;;4994070;28;20350;-69
2022/02/08 08:32:00;;;;;;;233.88;6.63;;;;;;;;;;4994823;28;20087;-69
2022/02/08 08:34:25;;;;;;;513.63;13.40;;;;;;;;;;4987648;28;20118;-68
2022/02/08 08:36:51;;;;;;;130.20;5.13;;;;;;;;;;4996628;28;20075;-69
2022/02/08 08:39:22;;;;;;;129.98;4.20;;;;;;;;;;5005784;28;20153;-69
2022/02/08 08:41:54;;;;;;;536.63;15.02;;;;;;;;;;4994391;28;20626;-69
2022/02/08 08:49:51;;;;;;;505.80;13.50;;;;;;;;;;4984282;28;20136;-69
2022/02/08 08:52:18;;;;;;;360.73;9.90;;;;;;;;;;4986620;28;20087;-69
2022/02/08 08:54:43;;;;;;;228.70;6.75;;;;;;;;;;4991600;28;20568;-69
2022/02/08 08:57:09;;;;;;;119.97;3.80;;;;;;;;;;4993096;28;20090;-69
2022/02/08 08:59:34;;;;;;;413.50;11.60;;;;;;;;;;4986013;28;20089;-69
2022/02/08 09:01:59;;;;;;;215.63;7.87;;;;;;;;;;4990500;28;20377;-69
2022/02/08 09:04:29;;;;;;;326.57;9.37;;;;;;;;;;4990066;28;20069;-69
2022/02/08 09:06:55;;;;;;;467.58;12.95;;;;;;;;;;4993872;28;20613;-69
2022/02/08 09:09:24;;;;;;;724.07;21.30;;;;;;;;;;4998781;28;20121;-69
2022/02/08 09:30:12;;;;;;;116.72;4.88;;;;;;;;;;4993373;28;20137;-68
2022/02/08 09:32:53;;;;;;;15.30;2.00;;;;;;;;;;5002373;28;20084;-68
2022/02/08 09:35:18;;;;;;;47.58;3.78;;;;;;;;;;4996667;28;20422;-68
2022/02/08 09:37:44;;;;;;;195.95;7.90;;;;;;;;;;5005109;28;20114;-68
2022/02/08 09:40:09;;;;;;;89.80;5.15;;;;;;;;;;4993054;28;20161;-68
2022/02/08 09:42:38;;;;;;;8.25;1.95;;;;;;;;;;5005456;28;20102;-68
2022/02/08 09:45:04;;;;;;;2.77;2.17;;;;;;;;;;4994818;28;20102;-68
2022/02/08 09:47:39;;;;;;;13.65;3.00;;;;;;;;;;4999064;28;20081;-68
2022/02/08 09:50:15;;;;;;;6.00;2.70;;;;;;;;;;4996634;28;20110;-68
2022/02/08 09:52:46;;;;;;;7.05;3.47;;;;;;;;;;4997435;28;20124;-68
2022/02/08 09:55:11;;;;;;;4.50;2.53;;;;;;;;;;4996303;28;20104;-68
2022/02/08 09:57:38;;;;;;;7.37;2.83;;;;;;;;;;5003637;28;20391;-68
2022/02/08 10:00:03;;;;;;;2.53;1.90;;;;;;;;;;4990964;28;20122;-68
2022/02/08 10:02:28;;;;;;;5.20;2.67;;;;;;;;;;4994061;28;20197;-68
2022/02/08 10:04:57;;;;;;;3.30;1.90;;;;;;;;;;4992961;28;20098;-68
2022/02/08 10:07:23;;;;;;;5.80;2.30;;;;;;;;;;5001212;28;20077;-68
2022/02/08 10:09:49;;;;;;;2.22;1.70;;;;;;;;;;4995775;28;20461;-68
2022/02/08 10:12:19;;;;;;;2.67;1.47;;;;;;;;;;4997894;28;20100;-68
2022/02/08 10:18:59;;;;;;;3.13;1.80;;;;;;;;;;4990070;28;20106;-68
2022/02/08 10:23:07;;;;;;;4.70;2.10;;;;;;;;;;4998196;28;20132;-68
2022/02/08 10:25:58;;;;;;;5.03;1.40;;;;;;;;;;4984867;28;20572;-68
2022/02/08 10:28:33;;;;;;;7.03;1.60;;;;;;;;;;4998210;28;20097;-69
2022/02/08 10:39:19;;;;;;;9.02;4.63;;;;;;;;;;4996625;28;20137;-68
2022/02/08 10:41:47;;;;;;;2.03;1.20;;;;;;;;;;4997144;28;20546;-67
2022/02/08 10:44:13;;;;;;;2.53;1.50;;;;;;;;;;4987099;28;20472;-67
2022/02/08 10:46:38;;;;;;;5.07;1.67;;;;;;;;;;5005134;28;20113;-67
2022/02/08 10:49:07;;;;;;;2.60;1.70;;;;;;;;;;4987332;28;20275;-67
2022/02/08 10:51:44;;;;;;;1.73;1.27;;;;;;;;;;5006039;28;20082;-67
2022/02/08 10:54:36;;;;;;;3.38;1.85;;;;;;;;;;4992101;28;20321;-67
2022/02/08 10:57:02;;;;;;;2.30;1.65;;;;;;;;;;4995031;28;20201;-67
2022/02/08 10:59:33;;;;;;;4.85;1.63;;;;;;;;;;4999703;28;20664;-67
2022/02/08 11:02:05;;;;;;;3.15;1.75;;;;;;;;;;4993487;28;20436;-67
2022/02/08 11:04:43;;;;;;;2.78;2.03;;;;;;;;;;4989789;28;20162;-67
2022/02/08 11:07:17;;;;;;;4.33;1.80;;;;;;;;;;4991216;28;20183;-67
2022/02/08 11:09:56;;;;;;;4.25;1.85;;;;;;;;;;4999456;28;20110;-67
2022/02/08 11:12:31;;;;;;;;;;;;;;;;;;4997004;28;20599;-67
2022/02/08 11:15:10;;;;;;;4.25;2.13;;;;;;;;;;4999105;28;19993;-67
2022/02/08 11:18:04;;;;;;;2.43;1.70;;;;;;;;;;4998147;28;20518;-67
2022/02/08 11:20:41;;;;;;;4.22;2.35;;;;;;;;;;4996038;28;20389;-67
2022/02/08 11:23:22;;;;;;;2.70;1.83;;;;;;;;;;4992067;28;20103;-67
2022/02/08 11:25:50;;;;;;;2.78;1.95;;;;;;;;;;4991898;28;20390;-67
2022/02/08 11:28:35;;;;;;;4.30;2.70;;;;;;;;;;5004874;28;20438;-67
2022/02/08 11:39:16;;;;;;;4.97;2.05;;;;;;;;;;4995299;28;20105;-67
2022/02/08 12:00:42;;;;;;;4.27;1.70;;;;;;;;;;4979380;28;20129;-66
2022/02/08 12:06:00;;;;;;;1.92;1.55;;;;;;;;;;5009796;28;20579;-66
2022/02/08 12:08:26;;;;;;;7.07;2.40;;;;;;;;;;5005336;28;20531;-66
2022/02/08 12:11:09;;;;;;;3.27;1.37;;;;;;;;;;4997986;28;20098;-66
2022/02/08 12:35:44;;;;;;;5.10;1.45;;;;;;;;;;4983006;28;20098;-64
2022/02/08 12:50:50;;;;;;;3.20;1.33;;;;;;;;;;5005858;28;20152;-64
2022/02/08 14:18:51;;;;;;;7.35;4.28;;;;;;;;;;5004776;28;20533;-66
2022/02/08 14:21:39;;;;;;;5.75;3.13;;;;;;;;;;4996154;28;20130;-66
2022/02/08 14:24:16;;;;;;;4.57;2.80;;;;;;;;;;5001938;28;20298;-65
2022/02/08 14:32:32;;;;;;;4.32;3.08;;;;;;;;;;5001103;28;20082;-65
2022/02/08 14:48:56;;;;;;;9.73;6.20;;;;;;;;;;4994194;28;20594;-66
2022/02/08 15:07:58;;;;;;;3.53;2.15;;;;;;;;;;4989564;28;20109;-66
2022/02/08 15:10:15;;;;;;;3.10;2.20;;;;;;;;;;4978439;28;20533;-65
2022/02/08 15:12:42;;;;;;;6.22;2.40;;;;;;;;;;5001718;28;20483;-66
2022/02/08 15:15:21;;;;;;;4.47;2.60;;;;;;;;;;5004296;28;20088;-66
2022/02/08 15:17:46;;;;;;;;;;;;;;;;;;4983438;28;20618;-65
2022/02/08 15:20:12;;;;;;;3.95;2.40;;;;;;;;;;4996020;28;20548;-65
2022/02/08 15:22:39;;;;;;;3.75;2.28;;;;;;;;;;4997920;28;20114;-65
2022/02/08 15:25:09;;;;;;;4.75;3.53;;;;;;;;;;4993240;28;20098;-66
2022/02/08 15:27:35;;;;;;;4.75;2.72;;;;;;;;;;4999729;28;20078;-66
2022/02/08 15:30:01;;;;;;;4.35;2.30;;;;;;;;;;4989831;28;20102;-66
2022/02/08 15:32:26;;;;;;;3.07;2.10;;;;;;;;;;4987243;28;20117;-66
2022/02/08 15:34:51;;;;;;;4.40;2.50;;;;;;;;;;4998919;28;20113;-66
2022/02/08 15:37:16;;;;;;;5.23;2.47;;;;;;;;;;4994917;28;20602;-65
2022/02/08 15:39:44;;;;;;;2.83;2.03;;;;;;;;;;4999719;28;20094;-65
2022/02/08 15:42:09;;;;;;;1.27;1.17;;;;;;;;;;4997636;28;20469;-65
2022/02/08 15:44:35;;;;;;;2.53;2.23;;;;;;;;;;4987080;28;20555;-65
2022/02/08 15:47:04;;;;;;;4.50;2.90;;;;;;;;;;4998408;28;20173;-65
2022/02/08 15:49:31;;;;;;;2.72;2.28;;;;;;;;;;4993959;28;20125;-65
2022/02/08 15:52:11;;;;;;;3.47;2.40;;;;;;;;;;4991982;28;20128;-65
2022/02/08 15:54:44;;;;;;;3.30;2.22;;;;;;;;;;4994545;28;20390;-66
2022/02/08 15:57:59;;;;;;;2.55;1.77;;;;;;;;;;4997301;28;20144;-66
2022/02/08 16:00:22;;;;;;;2.97;1.48;;;;;;;;;;4988758;28;20106;-65
2022/02/08 16:05:45;;;;;;;2.03;1.60;;;;;;;;;;5000879;28;20148;-65
2022/02/08 16:08:24;;;;;;;0.93;0.85;;;;;;;;;;5001410;28;20255;-66
2022/02/08 16:14:10;;;;;;;4.88;2.80;;;;;;;;;;4952418;28;20095;-64
2022/02/08 16:19:52;;;;;;;5.35;3.08;;;;;;;;;;4983259;28;20132;-65
2022/02/08 16:27:40;;;;;;;4.95;2.72;;;;;;;;;;4985478;28;20086;-65
2022/02/08 16:30:46;;;;;;;5.40;2.80;;;;;;;;;;4995482;28;20422;-65
2022/02/08 16:49:42;;;;;;;6.20;3.20;;;;;;;;;;4992002;28;20109;-65
2022/02/08 16:54:54;;;;;;;9.30;3.20;;;;;;;;;;4984686;28;20161;-65
2022/02/08 16:59:48;;;;;;;12.17;3.80;;;;;;;;;;4985784;28;20391;-64
2022/02/08 17:02:19;;;;;;;4.33;3.47;;;;;;;;;;4978556;28;20101;-65
2022/02/08 17:04:45;;;;;;;3.72;2.95;;;;;;;;;;4990576;28;20313;-64
2022/02/08 17:07:10;;;;;;;3.17;2.67;;;;;;;;;;4990742;28;20097;-65
2022/02/08 17:12:19;;;;;;;7.00;3.45;;;;;;;;;;4993164;28;20321;-65
2022/02/08 17:18:16;;;;;;;5.00;3.10;;;;;;;;;;4996903;28;20164;-64
2022/02/08 17:47:44;;;;;;;243.85;10.57;;;;;;;;;;4990486;28;20173;-65
2022/02/08 17:50:09;;;;;;;163.55;7.55;;;;;;;;;;4990878;28;20106;-65
2022/02/08 17:52:35;;;;;;;343.10;13.32;;;;;;;;;;4985458;28;20089;-65
2022/02/08 17:55:01;;;;;;;51.22;4.47;;;;;;;;;;4994380;28;20566;-65
2022/02/08 17:57:26;;;;;;;160.13;6.93;;;;;;;;;;5002485;28;20133;-65
2022/02/08 17:59:54;;;;;;;272.40;10.93;;;;;;;;;;4990601;28;20165;-65
2022/02/08 18:02:19;;;;;;;89.47;5.03;;;;;;;;;;4990227;28;20106;-65
2022/02/08 18:04:46;;;;;;;165.33;7.67;;;;;;;;;;4990269;28;20179;-65
2022/02/08 18:07:13;;;;;;;926.08;29.60;;;;;;;;;;4984744;28;20539;-64
2022/02/08 18:09:38;;;;;;;629.58;19.42;;;;;;;;;;4996148;28;20586;-65
2022/02/08 18:12:04;;;;;;;50.10;4.37;;;;;;;;;;4997479;28;20074;-65
2022/02/08 18:14:29;;;;;;;448.38;13.95;;;;;;;;;;4997067;28;20129;-65
2022/02/08 18:17:10;;;;;;;255.85;9.43;;;;;;;;;;4983270;28;20087;-65
2022/02/08 18:19:38;;;;;;;380.98;12.52;;;;;;;;;;4986210;28;20353;-65
2022/02/08 19:18:59;;;;;;;10.63;5.33;;;;;;;;;;4986303;28;20678;-65
2022/02/08 19:23:50;;;;;;;10.33;4.90;;;;;;;;;;4985485;28;20159;-65
2022/02/08 19:26:17;;;;;;;6.27;4.90;;;;;;;;;;4992169;28;20095;-65
2022/02/08 19:28:42;;;;;;;10.18;5.78;;;;;;;;;;5001435;28;20082;-65
2022/02/08 19:31:07;;;;;;;6.55;4.55;;;;;;;;;;4989617;28;20079;-65
2022/02/08 19:33:33;;;;;;;11.07;5.80;;;;;;;;;;4983479;28;20624;-65
2022/02/08 19:35:58;;;;;;;5.85;4.53;;;;;;;;;;4984399;28;20679;-65
2022/02/08 19:38:26;;;;;;;6.37;5.40;;;;;;;;;;4995161;28;20306;-65
2022/02/08 19:40:52;;;;;;;6.65;4.75;;;;;;;;;;4991243;28;20716;-65
2022/02/08 19:43:17;;;;;;;7.53;5.13;;;;;;;;;;4987189;28;20063;-65
2022/02/08 19:45:44;;;;;;;10.07;5.18;;;;;;;;;;4983271;28;20435;-65
2022/02/08 19:48:10;;;;;;;6.00;4.20;;;;;;;;;;4987144;28;20090;-65
2022/02/08 19:50:36;;;;;;;14.55;5.20;;;;;;;;;;4990274;28;20603;-65
2022/02/08 19:53:06;;;;;;;6.75;4.32;;;;;;;;;;4996652;28;20202;-65
2022/02/08 19:57:58;;;;;;;12.97;4.53;;;;;;;;;;4996128;28;20155;-65
2022/02/08 20:00:31;;;;;;;73.72;8.38;;;;;;;;;;4994619;28;20180;-65
2022/02/08 20:02:59;;;;;;;91.60;7.80;;;;;;;;;;4994419;28;20098;-65
2022/02/08 20:05:32;;;;;;;80.25;6.35;;;;;;;;;;4981474;28;20176;-65
2022/02/08 20:07:58;;;;;;;103.07;7.32;;;;;;;;;;4992466;28;20181;-65
2022/02/08 20:10:24;;;;;;;218.45;10.15;;;;;;;;;;4996061;28;20110;-65
2022/02/08 20:12:49;;;;;;;214.60;8.57;;;;;;;;;;4999701;28;20157;-65
2022/02/08 20:15:14;;;;;;;389.77;14.07;;;;;;;;;;4984631;28;20577;-65
2022/02/08 20:17:40;;;;;;;89.63;5.80;;;;;;;;;;4990120;28;20342;-65
2022/02/08 20:20:11;;;;;;;385.37;13.33;;;;;;;;;;4996367;28;20125;-65
2022/02/08 20:22:38;;;;;;;488.70;15.43;;;;;;;;;;4993065;28;20103;-65
2022/02/08 20:25:06;;;;;;;178.85;7.10;;;;;;;;;;4989323;28;20085;-65
2022/02/08 20:29:57;;;;;;;771.37;24.23;;;;;;;;;;4985817;28;20471;-65
2022/02/08 20:32:22;;;;;;;715.80;22.38;;;;;;;;;;4992066;28;20082;-65
2022/02/08 20:34:48;;;;;;;147.80;7.45;;;;;;;;;;4997603;28;20452;-65
2022/02/08 20:37:13;;;;;;;318.87;10.30;;;;;;;;;;4990448;28;20639;-65
2022/02/08 20:39:38;;;;;;;198.23;7.87;;;;;;;;;;4998412;28;20668;-65
2022/02/08 20:42:05;;;;;;;569.90;17.40;;;;;;;;;;4992903;28;20580;-65
2022/02/08 20:44:32;;;;;;;383.95;13.07;;;;;;;;;;4992016;28;20740;-65
2022/02/08 20:47:20;;;;;;;29.95;4.93;;;;;;;;;;4999328;28;20130;-65
2022/02/08 20:49:47;;;;;;;274.27;9.80;;;;;;;;;;4996035;28;20606;-65
2022/02/08 20:52:12;;;;;;;70.63;5.13;;;;;;;;;;4995120;28;20173;-65
2022/02/08 20:54:39;;;;;;;320.10;11.17;;;;;;;;;;4984772;28;20201;-65
2022/02/08 20:57:11;;;;;;;734.97;24.20;;;;;;;;;;4991743;28;20157;-65
2022/02/08 20:59:36;;;;;;;24.02;4.20;;;;;;;;;;4997333;28;20074;-65
2022/02/08 21:02:01;;;;;;;173.90;8.40;;;;;;;;;;4996783;28;20765;-65
2022/02/08 21:04:30;;;;;;;231.30;9.33;;;;;;;;;;4984831;28;20325;-65
2022/02/08 21:06:55;;;;;;;22.65;4.18;;;;;;;;;;4988049;28;20718;-65
2022/02/08 21:09:22;;;;;;;6.38;3.95;;;;;;;;;;4994975;28;20106;-65
2022/02/08 21:11:53;;;;;;;90.63;6.97;;;;;;;;;;4997744;28;20676;-65
2022/02/08 21:14:18;;;;;;;57.10;6.07;;;;;;;;;;4984672;28;20584;-65
2022/02/08 21:16:53;;;;;;;206.77;11.10;;;;;;;;;;4996879;28;20094;-65
2022/02/08 21:19:20;;;;;;;50.70;5.82;;;;;;;;;;5000673;28;20106;-65
2022/02/08 21:21:46;;;;;;;6.40;3.90;;;;;;;;;;4989377;28;20111;-65
2022/02/08 21:24:11;;;;;;;31.98;5.40;;;;;;;;;;4992523;28;20076;-65
2022/02/08 21:26:45;;;;;;;8.17;4.27;;;;;;;;;;4984580;28;20258;-65
2022/02/08 21:32:11;;;;;;;6.33;3.47;;;;;;;;;;5001496;28;20081;-65
2022/02/08 21:47:50;;;;;;;4.37;3.93;;;;;;;;;;4994327;28;20075;-65
2022/02/08 21:52:58;;;;;;;6.13;4.05;;;;;;;;;;4994999;28;20104;-65
2022/02/08 21:55:24;;;;;;;5.15;4.35;;;;;;;;;;4999384;28;20078;-65
2022/02/08 21:57:53;;;;;;;4.47;3.70;;;;;;;;;;4987620;28;20099;-65
2022/02/08 22:00:22;;;;;;;4.97;3.92;;;;;;;;;;4976695;28;20619;-65
2022/02/08 22:02:47;;;;;;;5.60;4.72;;;;;;;;;;4977345;28;20115;-65
2022/02/08 22:05:12;;;;;;;6.57;4.80;;;;;;;;;;4968480;28;20106;-65
2022/02/08 22:07:37;;;;;;;5.97;4.77;;;;;;;;;;4996908;28;20140;-65
2022/02/08 22:10:23;;;;;;;5.05;4.35;;;;;;;;;;5005194;28;20113;-65
2022/02/08 22:15:50;;;;;;;5.85;4.60;;;;;;;;;;4993691;28;20557;-65
2022/02/08 22:21:06;;;;;;;8.13;5.47;;;;;;;;;;4997027;28;20378;-65
2022/02/08 22:31:27;;;;;;;7.28;5.60;;;;;;;;;;4996854;28;20429;-65
2022/02/08 22:33:57;;;;;;;6.07;4.78;;;;;;;;;;4992193;28;20099;-65
2022/02/08 22:36:27;;;;;;;5.20;4.07;;;;;;;;;;4988635;28;20087;-65
2022/02/08 22:39:01;;;;;;;7.07;4.38;;;;;;;;;;4993698;28;20147;-65
2022/02/08 22:41:40;;;;;;;12.55;5.43;;;;;;;;;;4985612;28;20091;-65
2022/02/08 22:44:07;;;;;;;8.25;4.68;;;;;;;;;;4994985;28;20139;-65
2022/02/08 22:46:32;;;;;;;5.63;4.20;;;;;;;;;;4992356;28;20563;-65
2022/02/08 22:48:57;;;;;;;14.33;4.70;;;;;;;;;;4986752;28;20383;-65
2022/02/08 22:51:22;;;;;;;46.07;6.00;;;;;;;;;;4990361;28;20317;-66
2022/02/08 22:53:48;;;;;;;102.73;7.83;;;;;;;;;;4989646;28;20395;-65
2022/02/08 22:56:13;;;;;;;22.27;5.47;;;;;;;;;;4977426;28;20166;-65
2022/02/08 22:58:39;;;;;;;126.65;8.05;;;;;;;;;;4990259;28;20146;-65